Time;durP1;ratioP1;P1;durP2;ratioP2;P2;SDS_P1;SDS_P2;PMS_P1;PMS_P2;Temp;Humidity;BMP_temperature;BMP_pressure;BME280_temperature;BME280_humidity;BME280_pressure;Samples;Min_cycle;Max_cycle;Signal;HPM_P1;HPM_P2
2022/06/21 05:05:33;;;;;;;;;;;;;;;26.93;51.68;96486.25;4248586;27;10204;-66
2022/06/21 05:07:43;;;;;;;;;;;;;;;27.18;51.35;96493.06;4231431;27;5687;-66
2022/06/21 05:09:47;;;;;;;;;;;;;;;27.36;50.94;96491.28;4227279;28;5675;-66
2022/06/21 05:11:57;;;;;;;;;;;;;;;27.50;50.95;96488.50;4228587;28;6391;-67
2022/06/21 05:14:01;;;;;;;;;;;;;;;27.67;50.59;96499.50;4230090;28;5678;-67
2022/06/21 05:16:10;;;;;;;;;;;;;;;27.75;50.39;96496.06;4226632;28;5715;-67
2022/06/21 05:18:21;;;;;;;;;;;;;;;27.81;50.38;96489.38;4231135;28;5671;-67
2022/06/21 05:20:27;;;;;;;;;;;;;;;27.93;50.19;96496.13;4230113;28;5682;-66
2022/06/21 05:22:35;;;;;;;;;;;;;;;27.94;50.09;96495.03;4230955;28;5678;-66
2022/06/21 05:24:38;;;;;;;;;;;;;;;27.99;50.10;96494.91;4228120;28;5846;-66
2022/06/21 05:26:46;;;;;;;;;;;;;;;28.04;49.73;96497.47;4230342;28;5730;-66
2022/06/21 05:28:54;;;;;;;;;;;;;;;28.05;49.93;96486.28;4230912;28;5763;-66
2022/06/21 05:31:03;;;;;;;;;;;;;;;28.13;49.61;96487.44;4227137;28;5675;-64
2022/06/21 05:33:12;;;;;;;;;;;;;;;28.24;49.49;96488.78;4229196;28;5862;-64
2022/06/21 05:35:18;;;;;;;;;;;;;;;28.35;49.36;96498.28;4221915;28;5763;-64
2022/06/21 05:37:29;;;;;;;;;;;;;;;28.46;49.21;96496.09;4219442;28;5691;-64
2022/06/21 05:39:44;;;;;;;;;;;;;;;28.67;48.88;96499.03;4234110;27;5671;-65
2022/06/21 05:41:49;;;;;;;;;;;;;;;28.79;48.64;96501.94;4230441;28;5667;-65
2022/06/21 05:43:53;;;;;;;;;;;;;;;28.90;48.50;96497.81;4228151;28;5694;-65
2022/06/21 05:46:01;;;;;;;;;;;;;;;29.02;48.54;96499.13;4219901;28;5719;-64
2022/06/21 05:48:09;;;;;;;;;;;;;;;29.14;48.43;96496.56;4223520;28;5105;-64
2022/06/21 05:50:18;;;;;;;;;;;;;;;29.21;48.19;96507.75;4231193;28;5687;-65
2022/06/21 05:52:25;;;;;;;;;;;;;;;29.28;48.00;96508.09;4231357;28;5702;-66
2022/06/21 05:54:34;;;;;;;;;;;;;;;29.37;47.83;96495.28;4228229;28;5894;-66
2022/06/21 05:56:38;;;;;;;;;;;;;;;29.45;47.64;96499.13;4231057;28;5679;-65
2022/06/21 05:58:46;;;;;;;;;;;;;;;29.49;47.53;96497.38;4231735;28;5696;-65
2022/06/21 06:00:55;;;;;;;;;;;;;;;29.48;47.16;96488.41;4228748;28;5671;-65
2022/06/21 06:03:04;;;;;;;;;;;;;;;29.52;47.15;96502.97;4230631;28;5660;-65
2022/06/21 06:05:13;;;;;;;;;;;;;;;29.57;47.13;96499.31;4226272;28;5869;-65
2022/06/21 06:07:25;;;;;;;;;;;;;;;29.59;47.13;96499.78;4219201;28;7029;-65
2022/06/21 06:09:34;;;;;;;;;;;;;;;29.64;46.93;96498.81;4219701;28;5761;-65
2022/06/21 06:11:59;;;;;;;;;;;;;;;29.67;46.91;96503.59;4219421;28;5734;-65
2022/06/21 06:14:02;;;;;;;;;;;;;;;29.54;46.91;96503.44;4219809;28;5873;-65
2022/06/21 06:16:10;;;;;;;;;;;;;;;29.44;47.08;96502.94;4203009;28;5776;-65
2022/06/21 06:18:19;;;;;;;;;;;;;;;29.49;47.00;96508.28;4203143;28;5712;-65
2022/06/21 06:20:28;;;;;;;;;;;;;;;29.47;46.92;96510.50;4217333;28;5663;-65
2022/06/21 06:22:39;;;;;;;;;;;;;;;29.44;47.01;96506.47;4218938;28;5687;-65
2022/06/21 06:24:46;;;;;;;;;;;;;;;29.46;46.87;96514.34;4219390;28;5671;-65
2022/06/21 06:26:55;;;;;;;;;;;;;;;29.44;46.85;96511.91;4219544;28;5679;-65
2022/06/21 06:29:04;;;;;;;;;;;;;;;29.40;46.95;96510.16;4219580;28;5726;-65
2022/06/21 06:31:16;;;;;;;;;;;;;;;29.32;46.89;96503.59;4217567;28;5743;-65
2022/06/21 06:33:25;;;;;;;;;;;;;;;29.25;46.75;96506.00;4215120;28;5686;-66
2022/06/21 06:35:28;;;;;;;;;;;;;;;29.22;46.81;96506.63;4201280;28;5759;-66
2022/06/21 06:37:37;;;;;;;;;;;;;;;29.24;46.81;96512.59;4216456;28;5776;-65
2022/06/21 06:39:40;;;;;;;;;;;;;;;29.21;46.75;96503.09;4219245;28;5663;-65
2022/06/21 06:41:51;;;;;;;;;;;;;;;29.18;46.87;96511.94;4219346;28;6339;-65
2022/06/21 06:44:02;;;;;;;;;;;;;;;29.24;46.57;96507.13;4219117;28;5695;-65
2022/06/21 06:46:06;;;;;;;;;;;;;;;29.33;46.44;96518.81;4218095;28;5755;-66
2022/06/21 06:48:15;;;;;;;;;;;;;;;29.39;46.36;96514.00;4219070;28;5835;-66
2022/06/21 06:50:23;;;;;;;;;;;;;;;29.40;46.28;96499.28;4217473;28;5683;-66
2022/06/21 06:52:32;;;;;;;;;;;;;;;29.35;46.19;96511.16;4217506;28;5687;-66
2022/06/21 06:54:43;;;;;;;;;;;;;;;29.33;46.13;96518.00;4218558;28;5757;-67
2022/06/21 06:56:55;;;;;;;;;;;;;;;29.31;46.03;96512.88;4216908;28;5738;-66
2022/06/21 06:59:04;;;;;;;;;;;;;;;29.29;45.70;96510.50;4219218;28;5734;-67
2022/06/21 07:01:15;;;;;;;;;;;;;;;29.30;45.82;96505.84;4218034;28;5765;-66
2022/06/21 07:03:22;;;;;;;;;;;;;;;29.34;45.55;96517.72;4219081;28;5698;-66
2022/06/21 07:05:30;;;;;;;;;;;;;;;29.42;45.50;96511.44;4218624;28;5735;-66
2022/06/21 07:07:42;;;;;;;;;;;;;;;29.45;45.51;96524.44;4216540;28;5679;-66
2022/06/21 07:09:51;;;;;;;;;;;;;;;29.46;45.56;96517.06;4217737;28;5667;-66
2022/06/21 07:12:01;;;;;;;;;;;;;;;29.39;45.50;96528.44;4218986;28;5671;-66
2022/06/21 07:14:13;;;;;;;;;;;;;;;29.37;45.62;96527.16;4217510;28;5679;-66
2022/06/21 07:16:23;;;;;;;;;;;;;;;29.35;45.55;96535.66;4217583;28;5880;-66
2022/06/21 07:18:30;;;;;;;;;;;;;;;29.34;45.47;96536.78;4217927;28;5758;-66
2022/06/21 07:20:43;;;;;;;;;;;;;;;29.35;45.73;96532.94;4218979;28;5671;-66
2022/06/21 07:22:46;;;;;;;;;;;;;;;29.35;45.60;96543.00;4217475;28;7702;-66
2022/06/21 07:24:59;;;;;;;;;;;;;;;29.33;45.66;96543.31;4218338;28;5846;-66
2022/06/21 07:27:08;;;;;;;;;;;;;;;29.34;45.61;96546.88;4217581;28;5104;-66
2022/06/21 07:29:18;;;;;;;;;;;;;;;29.36;45.67;96553.59;4218147;28;5758;-66
2022/06/21 07:31:26;;;;;;;;;;;;;;;29.36;45.59;96553.59;4216352;28;5851;-66
2022/06/21 07:33:35;;;;;;;;;;;;;;;29.37;45.66;96557.91;4212407;28;5711;-66
2022/06/21 07:35:44;;;;;;;;;;;;;;;29.36;45.75;96552.78;4218384;28;5675;-66
2022/06/21 07:37:52;;;;;;;;;;;;;;;29.39;45.75;96558.38;4217997;28;5808;-66
2022/06/21 07:40:01;;;;;;;;;;;;;;;29.39;45.64;96550.22;4216106;28;5691;-66
2022/06/21 07:42:10;;;;;;;;;;;;;;;29.36;45.69;96548.13;4214555;28;5671;-66
2022/06/21 07:44:20;;;;;;;;;;;;;;;29.29;45.82;96537.72;4218821;28;5670;-66
2022/06/21 07:46:36;;;;;;;;;;;;;;;29.28;45.69;96530.66;4217682;28;5819;-66
2022/06/21 07:48:46;;;;;;;;;;;;;;;29.28;45.65;96527.16;4217841;28;5707;-66
2022/06/21 07:50:52;;;;;;;;;;;;;;;29.26;45.61;96527.47;4217827;28;6429;-66
2022/06/21 07:53:03;;;;;;;;;;;;;;;29.28;45.79;96524.44;4217693;28;5747;-66
2022/06/21 07:55:14;;;;;;;;;;;;;;;29.32;45.61;96528.09;4217124;28;5806;-66
2022/06/21 07:57:20;;;;;;;;;;;;;;;29.35;45.50;96534.84;4216039;28;5671;-66
2022/06/21 07:59:28;;;;;;;;;;;;;;;29.39;45.65;96535.81;4217024;28;5093;-66
2022/06/21 08:08:49;;;;;;;;;;;;;;;29.29;45.70;96536.91;4217359;28;6447;-66
2022/06/21 08:10:56;;;;;;;;;;;;;;;29.27;45.65;96531.78;4217163;28;5766;-66
2022/06/21 08:13:01;;;;;;;;;;;;;;;29.31;45.69;96540.09;4216731;28;5663;-66
2022/06/21 08:15:08;;;;;;;;;;;;;;;29.34;45.63;96542.22;4216967;28;7169;-66
2022/06/21 08:17:21;;;;;;;;;;;;;;;29.31;45.76;96542.84;4217490;28;5679;-67
2022/06/21 08:19:32;;;;;;;;;;;;;;;29.29;45.82;96542.34;4217948;28;5703;-66
2022/06/21 08:21:40;;;;;;;;;;;;;;;29.31;45.77;96542.84;4217550;28;5679;-66
2022/06/21 08:23:48;;;;;;;;;;;;;;;29.32;45.58;96536.25;4217606;28;5747;-65
2022/06/21 08:25:58;;;;;;;;;;;;;;;29.30;45.69;96538.50;4216433;28;7301;-65
2022/06/21 08:28:08;;;;;;;;;;;;;;;29.29;45.62;96531.47;4217300;28;5770;-66
2022/06/21 08:30:22;;;;;;;;;;;;;;;29.23;45.66;96528.13;4216158;28;5772;-67
2022/06/21 08:32:34;;;;;;;;;;;;;;;29.10;45.87;96517.34;4217939;28;5660;-67
2022/06/21 08:34:43;;;;;;;;;;;;;;;29.08;45.99;96509.50;4214869;28;5686;-67
2022/06/21 08:36:55;;;;;;;;;;;;;;;29.16;45.93;96505.22;4214253;28;5675;-67
2022/06/21 08:39:02;;;;;;;;;;;;;;;29.20;45.93;96498.78;4216615;28;5670;-66
2022/06/21 08:41:56;;;;;;;;;;;;;;;29.27;45.70;96493.69;4215497;28;5667;-66
2022/06/21 08:44:23;;;;;;;;;;;;;;;29.35;45.68;96500.25;4217661;28;5663;-63
2022/06/21 08:46:49;;;;;;;;;;;;;;;29.35;45.33;96489.38;4200785;28;6373;-63
2022/06/21 08:49:25;;;;;;;;;;;;;;;29.26;45.54;96494.00;4211004;28;5884;-63
2022/06/21 08:52:01;;;;;;;;;;;;;;;29.18;45.70;96483.91;4184213;28;5750;-62
2022/06/21 08:54:11;;;;;;;;;;;;;;;29.26;45.64;96494.00;4216748;28;5765;-63
2022/06/21 08:56:22;;;;;;;;;;;;;;;29.23;45.59;96490.00;4221174;28;6360;-63
2022/06/21 08:58:41;;;;;;;;;;;;;;;29.18;45.63;96487.44;4217680;28;5722;-63
2022/06/21 09:00:50;;;;;;;;;;;;;;;29.13;45.54;96484.06;4216757;28;5676;-62
2022/06/21 09:03:27;;;;;;;;;;;;;;;29.16;45.50;96491.59;4213865;28;6340;-64
2022/06/21 09:05:46;;;;;;;;;;;;;;;29.23;45.28;96500.09;4176642;28;5718;-64
2022/06/21 09:08:03;;;;;;;;;;;;;;;29.23;45.35;96492.72;4181186;28;5777;-63
2022/06/21 09:10:23;;;;;;;;;;;;;;;29.27;45.15;96487.44;4182619;28;5723;-63
2022/06/21 09:12:38;;;;;;;;;;;;;;;29.29;45.05;96496.06;4187949;28;5704;-63
2022/06/21 09:15:01;;;;;;;;;;;;;;;29.29;45.08;96487.91;4183384;28;5710;-63
2022/06/21 09:17:16;;;;;;;;;;;;;;;29.28;44.93;96489.84;4198395;28;5696;-65
2022/06/21 09:19:33;;;;;;;;;;;;;;;29.22;45.19;96473.97;4183315;28;5836;-63
2022/06/21 09:21:47;;;;;;;;;;;;;;;29.24;45.08;96469.03;4183354;28;6428;-62
2022/06/21 09:23:59;;;;;;;;;;;;;;;29.31;44.97;96466.59;4183698;28;5713;-63
2022/06/21 09:26:09;;;;;;;;;;;;;;;29.38;45.09;96466.13;4182201;28;5805;-63
2022/06/21 09:28:30;;;;;;;;;;;;;;;29.38;44.96;96453.31;4183506;28;5851;-63
2022/06/21 09:30:41;;;;;;;;;;;;;;;29.34;44.97;96465.97;4183288;28;5722;-61
2022/06/21 09:32:55;;;;;;;;;;;;;;;29.39;44.61;96456.84;4183532;28;5713;-63
2022/06/21 09:35:15;;;;;;;;;;;;;;;29.42;44.68;96453.47;4183459;28;5825;-63
2022/06/21 09:37:32;;;;;;;;;;;;;;;29.47;44.59;96454.13;4183837;28;5800;-62
2022/06/21 09:39:41;;;;;;;;;;;;;;;29.56;44.45;96460.38;4183192;28;5714;-62
2022/06/21 09:41:54;;;;;;;;;;;;;;;29.62;44.02;96452.03;4186778;28;5726;-62
2022/06/21 09:44:07;;;;;;;;;;;;;;;29.65;44.18;96457.63;4185981;28;5785;-62
2022/06/21 09:46:26;;;;;;;;;;;;;;;29.72;43.96;96451.69;4186994;28;5753;-62
2022/06/21 09:48:39;;;;;;;;;;;;;;;29.74;43.64;96461.13;4183462;28;5112;-62
2022/06/21 09:51:08;;;;;;;;;;;;;;;29.73;43.66;96456.00;4175927;28;5849;-62
2022/06/21 09:53:21;;;;;;;;;;;;;;;29.72;43.74;96441.59;4187305;28;5762;-62
2022/06/21 09:55:35;;;;;;;;;;;;;;;29.69;43.71;96428.63;4184045;28;5714;-63
2022/06/21 09:57:51;;;;;;;;;;;;;;;29.70;43.87;96427.50;4187000;28;5705;-63
2022/06/21 10:00:05;;;;;;;;;;;;;;;29.78;43.81;96442.19;4177570;28;5718;-63
2022/06/21 10:02:20;;;;;;;;;;;;;;;29.74;43.62;96447.50;4185757;28;5749;-63
2022/06/21 10:04:29;;;;;;;;;;;;;;;29.76;43.50;96439.00;4201844;28;5692;-63
2022/06/21 10:06:41;;;;;;;;;;;;;;;29.76;43.64;96439.81;4220043;28;5754;-63
2022/06/21 10:08:54;;;;;;;;;;;;;;;29.78;43.46;96440.28;4215360;28;5664;-65
2022/06/21 10:11:11;;;;;;;;;;;;;;;29.80;43.50;96445.41;4213822;28;5787;-66
2022/06/21 10:13:30;;;;;;;;;;;;;;;29.79;43.16;96428.28;4219475;28;5667;-65
2022/06/21 10:15:47;;;;;;;;;;;;;;;29.83;43.19;96431.13;4219851;28;5679;-65
2022/06/21 10:18:35;;;;;;;;;;;;;;;29.87;42.92;96432.06;4219769;28;5726;-64
2022/06/21 10:20:54;;;;;;;;;;;;;;;29.91;42.97;96426.78;4219930;28;5675;-66
2022/06/21 10:23:11;;;;;;;;;;;;;;;29.89;42.95;96421.66;4213632;28;5790;-65
2022/06/21 10:25:36;;;;;;;;;;;;;;;29.93;42.90;96425.34;4214710;28;5387;-62
2022/06/21 10:27:58;;;;;;;;;;;;;;;29.93;42.76;96411.72;4218806;28;5663;-62
2022/06/21 10:30:18;;;;;;;;;;;;;;;29.96;42.58;96408.31;4219770;28;6555;-62
2022/06/21 10:32:45;;;;;;;;;;;;;;;30.02;42.50;96419.84;4219287;28;5722;-62
2022/06/21 10:35:10;;;;;;;;;;;;;;;30.04;42.54;96421.13;4219765;28;5699;-62
2022/06/21 10:37:24;;;;;;;;;;;;;;;30.05;42.26;96416.47;4219672;28;5663;-61
2022/06/21 10:39:51;;;;;;;;;;;;;;;30.07;41.93;96420.50;4217130;28;5854;-62
2022/06/21 10:44:40;;;;;;;;;;;;;;;30.16;41.83;96416.94;4219499;28;5663;-62
2022/06/21 10:46:49;;;;;;;;;;;;;;;30.17;41.53;96419.31;4219385;28;6379;-61
2022/06/21 10:49:25;;;;;;;;;;;;;;;30.18;41.65;96411.94;4219513;28;5785;-62
2022/06/21 10:51:49;;;;;;;;;;;;;;;30.18;41.40;96410.03;4218667;28;5105;-61
2022/06/21 10:54:21;;;;;;;;;;;;;;;30.19;41.40;96411.63;4219610;28;5727;-62
2022/06/21 10:59:16;;;;;;;;;;;;;;;30.22;41.18;96402.78;4216786;27;5660;-62
2022/06/21 11:01:27;;;;;;;;;;;;;;;30.26;41.16;96400.22;4219072;28;5777;-62
2022/06/21 11:03:58;;;;;;;;;;;;;;;30.23;41.36;96398.91;4218669;28;5690;-62
2022/06/21 11:06:28;;;;;;;;;;;;;;;30.22;40.91;96391.88;4219377;28;5723;-62
2022/06/21 11:08:41;;;;;;;;;;;;;;;30.22;40.83;96382.88;4219135;28;5751;-62
2022/06/21 11:10:50;;;;;;;;;;;;;;;30.25;40.61;96379.53;4218812;28;5738;-62
2022/06/21 11:13:04;;;;;;;;;;;;;;;30.28;40.19;96385.13;4215664;28;5655;-62
2022/06/21 11:15:17;;;;;;;;;;;;;;;30.30;39.93;96373.88;4216230;28;5842;-62
2022/06/21 11:17:27;;;;;;;;;;;;;;;30.34;39.88;96363.91;4211464;28;5715;-62
2022/06/21 11:19:41;;;;;;;;;;;;;;;30.38;39.74;96362.91;4218685;28;5679;-61
2022/06/21 11:22:03;;;;;;;;;;;;;;;30.40;39.59;96357.13;4218743;28;5770;-62
2022/06/21 11:24:18;;;;;;;;;;;;;;;30.42;39.23;96360.31;4218799;28;5821;-62
2022/06/21 11:26:32;;;;;;;;;;;;;;;30.47;38.99;96359.31;4218691;28;5672;-62
2022/06/21 11:28:52;;;;;;;;;;;;;;;30.53;38.62;96361.53;4218977;28;5830;-62
2022/06/21 11:31:03;;;;;;;;;;;;;;;30.51;38.54;96352.88;4218911;28;5744;-62
2022/06/21 11:33:11;;;;;;;;;;;;;;;30.55;38.55;96359.25;4218308;28;5683;-62
2022/06/21 11:35:29;;;;;;;;;;;;;;;30.58;38.71;96358.63;4215388;28;5109;-62
2022/06/21 11:37:48;;;;;;;;;;;;;;;30.63;38.58;96347.53;4212921;28;5734;-62
2022/06/21 11:39:59;;;;;;;;;;;;;;;30.66;38.98;96343.31;4213150;28;5840;-62
2022/06/21 11:42:14;;;;;;;;;;;;;;;30.69;38.88;96337.19;4214849;28;5755;-61
2022/06/21 11:44:29;;;;;;;;;;;;;;;30.70;38.55;96333.34;4214996;28;5979;-62
2022/06/21 11:46:41;;;;;;;;;;;;;;;30.75;38.79;96335.06;4213068;28;5734;-62
2022/06/21 11:49:13;;;;;;;;;;;;;;;30.76;38.62;96339.41;4217356;28;5765;-62
2022/06/21 11:51:43;;;;;;;;;;;;;;;30.76;38.31;96336.66;4217666;28;5715;-62
2022/06/21 11:53:56;;;;;;;;;;;;;;;30.80;38.39;96334.84;4216384;28;5689;-62
2022/06/21 11:56:07;;;;;;;;;;;;;;;30.84;38.35;96338.53;4222267;28;5371;-62
2022/06/21 11:58:23;;;;;;;;;;;;;;;30.85;38.07;96326.47;4215991;28;5672;-62
2022/06/21 12:00:36;;;;;;;;;;;;;;;30.87;38.00;96318.75;4205669;28;5692;-62
2022/06/21 12:02:48;;;;;;;;;;;;;;;30.86;37.89;96312.50;4210606;28;5980;-61
2022/06/21 12:04:59;;;;;;;;;;;;;;;30.85;38.01;96319.09;4216421;28;5664;-62
2022/06/21 12:07:09;;;;;;;;;;;;;;;30.78;38.18;96321.56;4217280;28;5671;-62
2022/06/21 12:09:20;;;;;;;;;;;;;;;30.76;38.47;96315.63;4216209;28;5723;-62
2022/06/21 12:11:34;;;;;;;;;;;;;;;30.76;38.45;96314.84;4215999;28;5679;-62
2022/06/21 12:13:52;;;;;;;;;;;;;;;30.79;38.34;96319.63;4218139;28;5918;-62
2022/06/21 12:16:19;;;;;;;;;;;;;;;30.78;38.13;96316.09;4217219;28;6352;-62
2022/06/21 12:18:26;;;;;;;;;;;;;;;30.81;38.32;96311.91;4212739;28;6427;-60
2022/06/21 12:20:32;;;;;;;;;;;;;;;30.85;38.30;96312.84;4217985;28;5702;-61
2022/06/21 12:22:39;;;;;;;;;;;;;;;30.85;38.42;96305.44;4216807;28;5672;-61
2022/06/21 12:24:42;;;;;;;;;;;;;;;30.85;38.38;96307.38;4204374;28;5734;-61
2022/06/21 12:26:46;;;;;;;;;;;;;;;30.79;38.32;96293.13;4213771;28;5831;-61
2022/06/21 12:28:49;;;;;;;;;;;;;;;30.77;38.47;96300.06;4203477;28;5775;-61
2022/06/21 12:30:53;;;;;;;;;;;;;;;30.77;38.54;96300.84;4213019;28;5790;-61
2022/06/21 12:33:00;;;;;;;;;;;;;;;30.80;38.13;96288.47;4217070;28;5676;-61
2022/06/21 12:35:13;;;;;;;;;;;;;;;30.84;37.89;96290.22;4216261;28;5666;-61
2022/06/21 12:37:22;;;;;;;;;;;;;;;30.86;37.95;96293.41;4215414;28;5679;-62
2022/06/21 12:39:30;;;;;;;;;;;;;;;30.90;37.46;96288.06;4216351;28;5789;-61
2022/06/21 12:41:43;;;;;;;;;;;;;;;30.92;37.45;96297.53;4210951;28;5701;-61
2022/06/21 12:43:55;;;;;;;;;;;;;;;30.93;37.48;96284.69;4215052;28;5684;-61
2022/06/21 12:46:06;;;;;;;;;;;;;;;30.98;37.56;96281.72;4216505;28;5766;-62
2022/06/21 12:48:26;;;;;;;;;;;;;;;30.99;37.28;96272.41;4212408;28;5667;-61
2022/06/21 12:50:44;;;;;;;;;;;;;;;31.00;36.96;96276.72;4216475;28;5762;-61
2022/06/21 12:52:55;;;;;;;;;;;;;;;31.00;36.78;96276.72;4213894;28;5837;-61
2022/06/21 12:55:19;;;;;;;;;;;;;;;31.01;36.57;96275.56;4215534;28;5765;-61
2022/06/21 12:58:03;;;;;;;;;;;;;;;31.06;36.77;96274.59;4204061;28;5679;-61
2022/06/21 13:00:15;;;;;;;;;;;;;;;31.07;36.47;96270.72;4200306;28;5089;-61
2022/06/21 13:02:36;;;;;;;;;;;;;;;31.07;36.40;96257.88;4206565;28;5699;-61
2022/06/21 13:04:58;;;;;;;;;;;;;;;31.07;36.17;96246.94;4169885;28;5786;-61
2022/06/21 13:07:20;;;;;;;;;;;;;;;31.10;36.37;96242.75;4217403;28;5714;-61
2022/06/21 13:09:43;;;;;;;;;;;;;;;31.12;36.12;96241.25;4217003;28;5671;-61
2022/06/21 13:11:58;;;;;;;;;;;;;;;31.17;35.99;96243.00;4215316;28;5749;-61
2022/06/21 13:14:32;;;;;;;;;;;;;;;31.20;35.71;96240.41;4217509;28;5787;-61
2022/06/21 13:16:44;;;;;;;;;;;;;;;31.21;35.45;96250.19;4208541;28;5671;-61
2022/06/21 13:19:16;;;;;;;;;;;;;;;31.22;35.51;96246.31;4220824;28;6465;-61
2022/06/21 13:21:34;;;;;;;;;;;;;;;31.24;35.46;96244.03;4186063;28;5847;-61
2022/06/21 13:23:44;;;;;;;;;;;;;;;31.23;35.07;96253.34;4217695;28;5682;-61
2022/06/21 13:25:55;;;;;;;;;;;;;;;31.26;35.18;96246.44;4217344;28;5680;-61
2022/06/21 13:28:12;;;;;;;;;;;;;;;31.23;35.30;96253.34;4215617;28;5667;-61
2022/06/21 13:30:30;;;;;;;;;;;;;;;31.23;34.99;96261.56;4214010;28;5689;-61
2022/06/21 13:32:43;;;;;;;;;;;;;;;31.24;34.93;96260.41;4218115;28;5778;-61
2022/06/21 13:34:51;;;;;;;;;;;;;;;31.26;34.73;96258.16;4220306;28;5773;-61
2022/06/21 13:37:00;;;;;;;;;;;;;;;31.29;34.49;96262.16;4220577;28;5730;-61
2022/06/21 13:39:12;;;;;;;;;;;;;;;31.32;34.65;96266.13;4220443;28;5664;-61
2022/06/21 13:43:47;;;;;;;;;;;;;;;31.35;34.43;96270.91;4211613;28;5759;-61
2022/06/21 13:45:55;;;;;;;;;;;;;;;31.34;34.22;96261.91;4220474;28;5684;-61
2022/06/21 13:48:04;;;;;;;;;;;;;;;31.35;34.22;96260.78;4220178;28;5668;-60
2022/06/21 13:50:28;;;;;;;;;;;;;;;31.37;34.27;96263.16;4220604;28;5672;-61
2022/06/21 13:52:40;;;;;;;;;;;;;;;31.40;33.92;96257.03;4219601;28;5694;-61
2022/06/21 13:55:16;;;;;;;;;;;;;;;31.45;33.71;96262.25;4214170;28;5674;-61
2022/06/21 13:57:44;;;;;;;;;;;;;;;31.48;33.89;96256.91;4197293;28;5740;-61
2022/06/21 13:59:50;;;;;;;;;;;;;;;31.51;33.50;96252.72;4217935;28;5801;-61
2022/06/21 14:02:00;;;;;;;;;;;;;;;31.53;33.34;96250.44;4217965;28;5557;-61
2022/06/21 14:04:15;;;;;;;;;;;;;;;31.54;33.34;96257.50;4219192;28;5750;-61
2022/06/21 14:06:24;;;;;;;;;;;;;;;31.57;33.38;96254.06;4213917;28;7314;-61
2022/06/21 14:08:34;;;;;;;;;;;;;;;31.58;33.38;96252.94;4218755;28;5797;-61
2022/06/21 14:10:42;;;;;;;;;;;;;;;31.56;33.45;96247.81;4211879;28;5742;-61
2022/06/21 14:12:56;;;;;;;;;;;;;;;31.55;33.15;96248.16;4215597;28;5827;-61
2022/06/21 14:15:09;;;;;;;;;;;;;;;31.55;33.08;96253.63;4214180;28;5766;-61
2022/06/21 14:17:23;;;;;;;;;;;;;;;31.55;33.09;96238.03;4215251;28;5758;-61
2022/06/21 14:19:32;;;;;;;;;;;;;;;31.56;33.09;96236.88;4217234;28;5687;-61
2022/06/21 14:21:41;;;;;;;;;;;;;;;31.58;33.12;96225.63;4202904;28;6632;-61
2022/06/21 14:23:51;;;;;;;;;;;;;;;31.61;32.79;96227.69;4208110;28;5777;-62
2022/06/21 14:26:02;;;;;;;;;;;;;;;31.63;32.71;96216.41;4214270;28;5854;-61
2022/06/21 14:28:09;;;;;;;;;;;;;;;31.63;32.63;96205.47;4211234;28;5794;-60
2022/06/21 14:30:18;;;;;;;;;;;;;;;31.64;32.56;96205.13;4214671;28;5830;-60
2022/06/21 14:32:47;;;;;;;;;;;;;;;31.65;32.45;96204.00;4201703;28;5807;-60
2022/06/21 14:35:00;;;;;;;;;;;;;;;31.67;32.44;96193.50;4207179;28;5758;-60
2022/06/21 14:37:17;;;;;;;;;;;;;;;31.70;32.32;96206.47;4215637;28;5105;-61
2022/06/21 14:39:48;;;;;;;;;;;;;;;31.74;32.26;96209.34;4215951;28;5813;-60
2022/06/21 14:41:55;;;;;;;;;;;;;;;31.76;32.04;96196.94;4212853;28;5853;-60
2022/06/21 14:44:03;;;;;;;;;;;;;;;31.77;32.23;96206.75;4213350;28;5809;-60
2022/06/21 14:46:17;;;;;;;;;;;;;;;31.79;31.96;96204.44;4212714;28;5862;-62
2022/06/21 14:48:31;;;;;;;;;;;;;;;31.79;31.93;96209.91;4216204;28;5786;-62
2022/06/21 14:50:42;;;;;;;;;;;;;;;31.79;32.13;96220.06;4212744;28;5770;-62
2022/06/21 14:53:03;;;;;;;;;;;;;;;31.82;31.98;96219.34;4214938;28;6291;-62
2022/06/21 14:55:33;;;;;;;;;;;;;;;31.83;32.00;96220.97;4172999;28;5833;-62
2022/06/21 14:58:12;;;;;;;;;;;;;;;31.83;31.75;96216.31;4213054;28;5761;-62
2022/06/21 15:00:33;;;;;;;;;;;;;;;31.85;31.61;96215.97;4214746;28;5755;-62
2022/06/21 15:03:15;;;;;;;;;;;;;;;31.86;31.75;96210.16;4211825;28;6511;-62
2022/06/21 15:05:29;;;;;;;;;;;;;;;31.88;31.81;96217.19;4209843;28;5785;-62
2022/06/21 15:07:45;;;;;;;;;;;;;;;31.87;31.65;96230.06;4210190;28;5794;-61
2022/06/21 15:09:53;;;;;;;;;;;;;;;31.89;31.68;96227.78;4211628;28;5186;-62
2022/06/21 15:12:04;;;;;;;;;;;;;;;31.91;31.28;96224.69;4208438;28;5775;-62
2022/06/21 15:14:10;;;;;;;;;;;;;;;31.93;31.18;96219.69;4218984;28;5766;-62
2022/06/21 15:16:16;;;;;;;;;;;;;;;31.93;31.40;96223.22;4211334;28;5880;-62
2022/06/21 15:18:25;;;;;;;;;;;;;;;31.95;31.07;96218.22;4216759;28;5794;-61
2022/06/21 15:20:45;;;;;;;;;;;;;;;31.96;31.52;96216.28;4211017;28;5810;-62
2022/06/21 15:22:54;;;;;;;;;;;;;;;31.99;31.23;96218.31;4215443;28;6601;-62
2022/06/21 15:25:09;;;;;;;;;;;;;;;31.97;31.08;96210.47;4210287;28;5085;-61
2022/06/21 15:27:22;;;;;;;;;;;;;;;31.98;30.95;96208.53;4215834;28;6471;-62
2022/06/21 15:29:33;;;;;;;;;;;;;;;31.99;31.03;96212.84;4212063;28;5770;-62
2022/06/21 15:31:46;;;;;;;;;;;;;;;32.00;30.95;96219.91;4223819;28;5760;-62
2022/06/21 15:33:55;;;;;;;;;;;;;;;32.01;30.90;96219.56;4213933;28;5841;-62
2022/06/21 15:36:14;;;;;;;;;;;;;;;32.01;31.02;96216.81;4223326;28;5812;-62
2022/06/21 15:38:21;;;;;;;;;;;;;;;31.97;30.84;96229.59;4210881;28;5800;-62
2022/06/21 15:40:27;;;;;;;;;;;;;;;31.96;30.88;96227.22;4215248;28;5785;-62
2022/06/21 15:42:42;;;;;;;;;;;;;;;31.96;31.04;96224.47;4214062;27;5868;-62
2022/06/21 15:44:52;;;;;;;;;;;;;;;31.95;30.96;96222.91;4218079;28;5850;-61
2022/06/21 15:51:52;;;;;;;;;;;;;;;31.94;31.25;96233.03;4200433;28;6607;-62
2022/06/21 15:54:13;;;;;;;;;;;;;;;31.93;31.23;96231.41;4208664;28;6581;-61
2022/06/21 15:56:24;;;;;;;;;;;;;;;31.93;30.88;96228.69;4206575;28;6443;-65
2022/06/21 15:58:42;;;;;;;;;;;;;;;31.96;31.33;96235.41;4220581;28;5778;-62
2022/06/21 16:00:49;;;;;;;;;;;;;;;31.97;30.91;96231.53;4219812;28;6437;-62
2022/06/21 16:03:01;;;;;;;;;;;;;;;31.96;31.30;96225.28;4221504;28;5786;-62
2022/06/21 16:05:17;;;;;;;;;;;;;;;31.95;31.35;96231.88;4224668;28;5654;-62
2022/06/21 16:07:26;;;;;;;;;;;;;;;31.95;31.11;96234.63;4220760;27;5774;-61
2022/06/21 16:09:35;;;;;;;;;;;;;;;31.95;31.03;96237.34;4215237;28;5818;-62
2022/06/21 16:11:48;;;;;;;;;;;;;;;31.94;31.11;96234.94;4223380;28;5097;-62
2022/06/21 16:13:56;;;;;;;;;;;;;;;31.93;31.12;96234.16;4214597;28;5766;-61
2022/06/21 16:16:01;;;;;;;;;;;;;;;31.92;31.25;96242.69;4209947;28;5860;-62
2022/06/21 16:18:07;;;;;;;;;;;;;;;31.90;31.49;96239.50;4212344;28;5802;-62
2022/06/21 16:20:14;;;;;;;;;;;;;;;31.91;31.45;96241.09;4216553;28;5858;-62
2022/06/21 16:22:18;;;;;;;;;;;;;;;31.88;31.40;96239.06;4212891;27;5790;-68
2022/06/21 16:24:30;;;;;;;;;;;;;;;31.79;31.68;96239.97;4215155;28;5847;-69
2022/06/21 16:26:38;;;;;;;;;;;;;;;31.73;32.35;96232.34;4208964;28;5762;-69
2022/06/21 16:28:49;;;;;;;;;;;;;;;31.68;32.67;96238.81;4214121;28;5810;-68
2022/06/21 16:33:30;;;;;;;;;;;;;;;31.59;32.58;96227.19;4204308;28;5760;-69
2022/06/21 16:35:38;;;;;;;;;;;;;;;31.55;32.80;96224.38;4209860;28;5798;-70
2022/06/21 16:37:46;;;;;;;;;;;;;;;31.50;32.97;96224.63;4214250;28;5810;-69
2022/06/21 16:39:57;;;;;;;;;;;;;;;31.51;33.09;96230.88;4213153;28;5785;-70
2022/06/21 16:44:35;;;;;;;;;;;;;;;31.49;33.16;96225.75;4218968;28;5784;-69
2022/06/21 16:46:46;;;;;;;;;;;;;;;31.44;33.05;96233.34;4208949;28;5854;-68
2022/06/21 16:48:55;;;;;;;;;;;;;;;31.41;33.36;96232.13;4211830;28;5922;-69
2022/06/21 16:51:06;;;;;;;;;;;;;;;31.42;33.47;96228.25;4213495;28;6466;-69
2022/06/21 16:53:23;;;;;;;;;;;;;;;31.41;33.52;96234.06;4203516;28;5833;-68
2022/06/21 16:55:52;;;;;;;;;;;;;;;31.39;33.48;96239.06;4211175;28;5782;-68
2022/06/21 16:58:05;;;;;;;;;;;;;;;31.38;33.73;96218.34;4206339;28;5798;-68
2022/06/21 17:00:27;;;;;;;;;;;;;;;31.36;34.06;96223.34;4208549;28;5774;-72
2022/06/21 17:02:33;;;;;;;;;;;;;;;31.34;34.30;96220.16;4207943;28;5835;-72
2022/06/21 17:04:38;;;;;;;;;;;;;;;31.34;34.08;96220.16;4207581;28;5686;-73
2022/06/21 17:06:44;;;;;;;;;;;;;;;31.31;34.55;96221.63;4210868;28;5691;-73
2022/06/21 17:08:47;;;;;;;;;;;;;;;31.29;34.37;96213.00;4215525;28;5739;-73
2022/06/21 17:13:23;;;;;;;;;;;;;;;31.25;35.10;96215.59;4210432;28;5783;-73
2022/06/21 17:15:36;;;;;;;;;;;;;;;31.25;35.16;96218.31;4210241;28;5766;-73